Marzagao, Brazil
Current Conditions -  °F | °C
As of 3:00 PM on Monday 20 Oct 2014 (Local Time) from SBUL Reporting Station
Scattered Clouds Scattered Clouds  
Wind Chill: 86°   Ceiling: Unl
Heat Index: 86°   Visibility: 6mi
Dew Point: 55°   Wind: 10mph
Humidity: 35%   Direction: 210°SSW
Pressure: 30"   Gusts: NA
Location:  17.98°S, 48.64°W
Report Text: SBUL 201800Z 21009KT 9999 FEW040 SCT100 30/13 Q1016
Loading
Personal Weather Stations






























Interactive Weather Map
Tropical Storm Tracking
New forecast layout! Learn more

10-Day Weather Forecast

Advertisements
Track Severe Weather on mobile